Island Grove, Florida
Current Conditions -  °F | °C
As of 6:53 AM on Thursday 18 Dec 2014 (Local Time) from KGNV Reporting Station
Clear Clear  
Wind Chill: 42°   Ceiling: Unl
Heat Index: 42°   Visibility: 10mi
Dew Point: 41°   Wind: 0mph
Humidity: 96%   Direction: NA
Pressure: 30.15"   Gusts: NA
Location:  29.45°N, 82.11°W
Report Text: KGNV 181153Z 00000KT 10SM CLR 06/05 A3015 RMK AO2 SLP210 T00560050 10083 20044 53004
Loading
Personal Weather Stations






























Interactive Weather Map New forecast layout! Learn more

10-Day Weather Forecast

Advertisements
Track Severe Weather on mobile